Time;durP1;ratioP1;P1;durP2;ratioP2;P2;SDS_P1;SDS_P2;PMS_P1;PMS_P2;Temp;Humidity;BMP_temperature;BMP_pressure;BME280_temperature;BME280_humidity;BME280_pressure;Samples;Min_cycle;Max_cycle;Signal;HPM_P1;HPM_P2
2022/08/13 00:02:00;;;;;;;9.02;8.38;;;;;;;;;;4907037;29;20055;-68
2022/08/13 00:04:26;;;;;;;9.30;8.65;;;;;;;;;;4908252;29;20189;-68
2022/08/13 00:09:30;;;;;;;9.45;8.73;;;;;;;;;;4908652;29;20043;-68
2022/08/13 00:14:41;;;;;;;9.63;8.88;;;;;;;;;;4908038;29;20047;-68
2022/08/13 00:17:12;;;;;;;9.85;9.05;;;;;;;;;;4908891;29;20055;-67
2022/08/13 00:19:41;;;;;;;9.40;8.90;;;;;;;;;;4908832;29;20036;-69
2022/08/13 00:22:09;;;;;;;9.60;8.90;;;;;;;;;;4909859;29;20119;-68
2022/08/13 00:24:34;;;;;;;9.65;8.95;;;;;;;;;;4907853;29;20036;-68
2022/08/13 00:27:01;;;;;;;10.10;9.30;;;;;;;;;;4908996;29;20139;-69
2022/08/13 00:29:28;;;;;;;9.75;9.05;;;;;;;;;;4906086;29;20460;-67
2022/08/13 00:31:54;;;;;;;9.55;8.95;;;;;;;;;;4909719;29;20106;-67
2022/08/13 00:34:20;;;;;;;9.50;8.90;;;;;;;;;;4908024;29;20515;-67
2022/08/13 00:36:47;;;;;;;9.80;9.20;;;;;;;;;;4906911;29;20040;-69
2022/08/13 00:39:13;;;;;;;9.82;9.13;;;;;;;;;;4909299;29;20028;-67
2022/08/13 00:41:45;;;;;;;9.38;8.68;;;;;;;;;;4907739;29;20076;-66
2022/08/13 00:44:16;;;;;;;9.88;9.18;;;;;;;;;;4909899;29;20433;-69
2022/08/13 00:46:42;;;;;;;9.63;9.02;;;;;;;;;;4907556;29;20035;-68
2022/08/13 00:49:11;;;;;;;9.88;9.10;;;;;;;;;;4909053;29;20040;-67
2022/08/13 00:51:40;;;;;;;9.95;9.10;;;;;;;;;;4906245;29;20126;-67
2022/08/13 00:54:13;;;;;;;9.70;9.00;;;;;;;;;;4910104;29;20050;-67
2022/08/13 00:56:39;;;;;;;9.90;9.20;;;;;;;;;;4906854;29;20070;-66
2022/08/13 00:59:14;;;;;;;9.88;9.13;;;;;;;;;;4910327;29;20059;-67
2022/08/13 01:01:42;;;;;;;9.25;8.68;;;;;;;;;;4909158;29;20068;-67
2022/08/13 01:04:07;;;;;;;9.77;9.07;;;;;;;;;;4911071;29;20035;-67
2022/08/13 01:06:35;;;;;;;9.65;9.05;;;;;;;;;;4906737;29;20036;-68
2022/08/13 01:09:04;;;;;;;9.30;8.80;;;;;;;;;;4911939;29;20044;-69
2022/08/13 01:11:34;;;;;;;9.52;9.02;;;;;;;;;;4908973;29;20040;-67
2022/08/13 01:14:04;;;;;;;10.18;9.48;;;;;;;;;;4907471;29;20043;-70
2022/08/13 01:16:35;;;;;;;9.93;9.20;;;;;;;;;;4906471;29;20173;-67
2022/08/13 01:19:03;;;;;;;9.93;9.20;;;;;;;;;;4905914;29;20036;-69
2022/08/13 01:21:39;;;;;;;10.27;9.43;;;;;;;;;;4908595;29;20511;-68
2022/08/13 01:24:06;;;;;;;9.75;9.00;;;;;;;;;;4908243;29;20040;-69
2022/08/13 01:26:32;;;;;;;9.77;9.18;;;;;;;;;;4908727;29;20412;-67
2022/08/13 01:29:04;;;;;;;10.35;9.40;;;;;;;;;;4905530;29;20082;-66
2022/08/13 01:31:31;;;;;;;9.88;9.27;;;;;;;;;;4909439;29;20503;-67
2022/08/13 01:33:59;;;;;;;9.73;9.13;;;;;;;;;;4906921;29;20114;-67
2022/08/13 01:36:27;;;;;;;9.65;9.05;;;;;;;;;;4910873;29;20051;-68
2022/08/13 01:38:52;;;;;;;9.90;9.20;;;;;;;;;;4908664;29;20048;-67
2022/08/13 01:41:18;;;;;;;9.90;9.02;;;;;;;;;;4907083;29;20042;-68
2022/08/13 01:43:44;;;;;;;10.10;9.40;;;;;;;;;;4906668;29;20032;-68
2022/08/13 01:46:11;;;;;;;9.90;9.27;;;;;;;;;;4908241;29;20036;-67
2022/08/13 01:51:35;;;;;;;9.60;9.00;;;;;;;;;;4909026;29;20558;-68
2022/08/13 01:54:02;;;;;;;9.32;8.73;;;;;;;;;;4907378;29;20036;-67
2022/08/13 01:56:30;;;;;;;10.05;9.35;;;;;;;;;;4910360;29;20047;-69
2022/08/13 01:59:01;;;;;;;9.82;9.23;;;;;;;;;;4909623;29;20036;-68
2022/08/13 02:01:27;;;;;;;9.70;8.90;;;;;;;;;;4920480;29;20045;-69
2022/08/13 02:03:56;;;;;;;9.98;9.18;;;;;;;;;;4910026;29;20044;-68
2022/08/13 02:06:31;;;;;;;9.70;9.10;;;;;;;;;;4909639;29;20039;-69
2022/08/13 02:09:00;;;;;;;10.70;9.63;;;;;;;;;;4907760;29;20119;-67
2022/08/13 02:11:31;;;;;;;;;;;;;;;;;;4908280;29;20044;-69
2022/08/13 02:13:57;;;;;;;9.95;9.35;;;;;;;;;;4907985;29;19915;-67
2022/08/13 02:16:23;;;;;;;10.07;9.40;;;;;;;;;;4909897;29;20689;-68
2022/08/13 02:18:53;;;;;;;10.00;9.30;;;;;;;;;;4909545;29;20147;-68
2022/08/13 02:21:21;;;;;;;10.70;9.60;;;;;;;;;;4908221;29;20115;-68
2022/08/13 02:23:58;;;;;;;9.80;9.20;;;;;;;;;;4906377;29;20313;-68
2022/08/13 02:26:27;;;;;;;9.85;9.25;;;;;;;;;;4906921;29;20315;-69
2022/08/13 02:28:54;;;;;;;10.32;9.63;;;;;;;;;;4904183;29;20395;-69
2022/08/13 02:31:21;;;;;;;9.68;9.10;;;;;;;;;;4908823;29;20048;-69
2022/08/13 02:33:47;;;;;;;9.77;9.18;;;;;;;;;;4909942;29;20346;-69
2022/08/13 02:36:15;;;;;;;9.55;8.95;;;;;;;;;;4905725;29;20048;-69
2022/08/13 02:38:42;;;;;;;10.05;9.35;;;;;;;;;;4908202;29;20172;-69
2022/08/13 02:43:54;;;;;;;9.82;9.18;;;;;;;;;;4907635;29;20108;-68
2022/08/13 02:46:21;;;;;;;9.95;9.35;;;;;;;;;;4910388;29;20639;-68
2022/08/13 02:48:49;;;;;;;10.10;9.50;;;;;;;;;;4912548;29;20520;-68
2022/08/13 02:51:15;;;;;;;9.80;9.20;;;;;;;;;;4906333;29;20047;-67
2022/08/13 02:53:42;;;;;;;10.25;9.40;;;;;;;;;;4908942;29;20123;-69
2022/08/13 02:56:08;;;;;;;9.90;9.30;;;;;;;;;;4912429;29;20036;-68
2022/08/13 02:58:36;;;;;;;9.82;9.23;;;;;;;;;;4912304;29;20091;-67
2022/08/13 03:01:03;;;;;;;9.90;9.30;;;;;;;;;;4909120;29;20492;-69
2022/08/13 03:03:31;;;;;;;10.10;9.40;;;;;;;;;;4911570;29;20149;-69
2022/08/13 03:06:00;;;;;;;9.80;9.20;;;;;;;;;;4911738;29;20063;-67
2022/08/13 03:08:29;;;;;;;9.75;9.20;;;;;;;;;;4913122;29;20059;-69
2022/08/13 03:10:55;;;;;;;10.23;9.30;;;;;;;;;;4908372;29;20043;-68
2022/08/13 03:13:28;;;;;;;9.80;9.20;;;;;;;;;;4912453;29;20044;-68
2022/08/13 03:15:55;;;;;;;10.05;9.15;;;;;;;;;;4910663;29;20054;-68
2022/08/13 03:18:22;;;;;;;9.90;9.20;;;;;;;;;;4912650;29;20032;-68
2022/08/13 03:20:49;;;;;;;9.70;9.10;;;;;;;;;;4911272;29;20039;-69
2022/08/13 03:23:15;;;;;;;9.70;9.10;;;;;;;;;;4911678;29;20036;-69
2022/08/13 03:25:40;;;;;;;9.98;9.30;;;;;;;;;;4911029;29;20094;-69
2022/08/13 03:28:06;;;;;;;9.63;9.02;;;;;;;;;;4910784;29;20487;-69
2022/08/13 03:30:34;;;;;;;10.00;9.40;;;;;;;;;;4912933;29;20040;-69
2022/08/13 03:33:11;;;;;;;9.82;9.20;;;;;;;;;;4913967;29;20123;-67
2022/08/13 03:35:38;;;;;;;10.50;9.80;;;;;;;;;;4911931;29;20044;-69
2022/08/13 03:38:06;;;;;;;10.35;9.65;;;;;;;;;;4908981;29;20116;-68
2022/08/13 03:43:17;;;;;;;10.38;9.77;;;;;;;;;;4910276;29;20047;-68
2022/08/13 03:45:44;;;;;;;10.30;9.50;;;;;;;;;;4910620;29;20571;-69
2022/08/13 03:48:13;;;;;;;10.10;9.48;;;;;;;;;;4911737;29;20043;-67
2022/08/13 03:50:42;;;;;;;10.48;9.80;;;;;;;;;;4912349;29;20032;-67
2022/08/13 03:53:09;;;;;;;9.88;9.27;;;;;;;;;;4911854;29;20413;-67
2022/08/13 03:55:37;;;;;;;10.00;9.40;;;;;;;;;;4909022;29;20038;-68
2022/08/13 03:58:05;;;;;;;9.63;9.02;;;;;;;;;;4909835;29;20395;-68
2022/08/13 04:00:40;;;;;;;9.40;8.90;;;;;;;;;;4911896;29;20040;-68
2022/08/13 04:03:16;;;;;;;9.82;9.13;;;;;;;;;;4909869;29;20035;-69
2022/08/13 04:05:43;;;;;;;10.40;9.60;;;;;;;;;;4909262;29;20434;-69
2022/08/13 04:08:09;;;;;;;10.32;9.65;;;;;;;;;;4911667;29;20039;-67
2022/08/13 04:10:35;;;;;;;11.15;10.13;;;;;;;;;;4910828;29;20024;-68
2022/08/13 04:13:00;;;;;;;11.68;10.60;;;;;;;;;;4909279;29;20054;-67
2022/08/13 04:15:26;;;;;;;11.15;10.35;;;;;;;;;;4911079;29;20463;-68
2022/08/13 04:17:53;;;;;;;11.10;10.30;;;;;;;;;;4911564;29;20067;-68
2022/08/13 04:20:19;;;;;;;11.98;11.07;;;;;;;;;;4909581;29;20036;-67
2022/08/13 04:22:45;;;;;;;12.45;11.55;;;;;;;;;;4909809;29;20050;-67
2022/08/13 04:25:12;;;;;;;11.70;10.68;;;;;;;;;;4911027;29;20035;-68
2022/08/13 04:27:38;;;;;;;12.13;11.13;;;;;;;;;;4911323;29;20036;-69
2022/08/13 04:30:05;;;;;;;12.02;11.02;;;;;;;;;;4909426;29;20028;-68
2022/08/13 04:32:40;;;;;;;11.68;10.80;;;;;;;;;;4911017;29;20507;-68
2022/08/13 04:35:06;;;;;;;12.38;11.20;;;;;;;;;;4911014;29;20079;-68
2022/08/13 04:37:32;;;;;;;11.65;10.80;;;;;;;;;;4910852;29;20040;-68
2022/08/13 04:39:57;;;;;;;12.20;11.13;;;;;;;;;;4910696;29;20031;-67
2022/08/13 04:42:23;;;;;;;11.48;10.52;;;;;;;;;;4911216;29;20488;-68
2022/08/13 04:44:49;;;;;;;11.85;10.88;;;;;;;;;;4908480;29;20068;-68
2022/08/13 04:47:14;;;;;;;11.80;10.90;;;;;;;;;;4910247;29;20048;-68
2022/08/13 04:49:40;;;;;;;11.90;10.90;;;;;;;;;;4911269;29;20091;-67
2022/08/13 04:52:05;;;;;;;11.68;10.57;;;;;;;;;;4903128;29;20076;-69
2022/08/13 04:54:31;;;;;;;11.10;10.20;;;;;;;;;;4908407;29;20036;-68
2022/08/13 04:56:57;;;;;;;11.35;10.35;;;;;;;;;;4910510;29;20032;-68
2022/08/13 04:59:23;;;;;;;11.77;10.82;;;;;;;;;;4910307;29;20024;-68
2022/08/13 05:01:49;;;;;;;12.50;11.32;;;;;;;;;;4905518;29;20062;-68
2022/08/13 05:04:17;;;;;;;12.20;11.05;;;;;;;;;;4910009;29;20035;-68
2022/08/13 05:06:44;;;;;;;11.63;10.63;;;;;;;;;;4909895;29;20036;-67
2022/08/13 05:09:09;;;;;;;12.00;11.00;;;;;;;;;;4909988;29;20072;-69
2022/08/13 05:11:35;;;;;;;11.38;10.55;;;;;;;;;;4906907;29;20068;-68
2022/08/13 05:14:01;;;;;;;11.27;10.38;;;;;;;;;;4910062;29;20512;-67
2022/08/13 05:16:26;;;;;;;11.18;10.40;;;;;;;;;;4909763;29;20138;-68
2022/08/13 05:18:54;;;;;;;11.20;10.30;;;;;;;;;;4910709;29;20083;-68
2022/08/13 05:21:22;;;;;;;11.15;10.25;;;;;;;;;;4907913;29;20367;-68
2022/08/13 05:23:53;;;;;;;11.02;10.15;;;;;;;;;;4910135;29;20040;-68
2022/08/13 05:26:31;;;;;;;11.75;10.63;;;;;;;;;;4909846;29;20040;-68
2022/08/13 05:29:04;;;;;;;11.52;10.80;;;;;;;;;;4908920;29;20051;-68
2022/08/13 05:31:34;;;;;;;10.40;9.80;;;;;;;;;;4909926;29;20048;-68
2022/08/13 05:34:03;;;;;;;10.48;9.77;;;;;;;;;;4906966;29;20040;-68
2022/08/13 05:36:31;;;;;;;11.40;10.43;;;;;;;;;;4908904;29;20444;-69
2022/08/13 05:38:58;;;;;;;10.77;10.05;;;;;;;;;;4908609;29;20056;-69
2022/08/13 05:41:25;;;;;;;11.43;10.32;;;;;;;;;;4909753;29;20083;-68
2022/08/13 05:43:52;;;;;;;10.98;10.23;;;;;;;;;;4909330;29;20070;-69
2022/08/13 05:46:19;;;;;;;11.88;10.52;;;;;;;;;;4907265;29;20046;-69
2022/08/13 05:48:56;;;;;;;10.98;10.07;;;;;;;;;;4901577;29;20044;-68
2022/08/13 05:51:28;;;;;;;10.90;10.10;;;;;;;;;;4908632;29;20032;-69
2022/08/13 05:53:57;;;;;;;11.07;10.27;;;;;;;;;;4909487;29;20500;-69
2022/08/13 05:56:24;;;;;;;10.45;9.75;;;;;;;;;;4907548;29;20040;-69
2022/08/13 05:58:51;;;;;;;10.80;10.10;;;;;;;;;;4908578;29;20123;-70
2022/08/13 06:04:14;;;;;;;10.07;9.48;;;;;;;;;;4910000;29;20403;-69
2022/08/13 06:06:40;;;;;;;10.75;9.85;;;;;;;;;;4909044;29;20151;-69
2022/08/13 06:09:06;;;;;;;10.40;9.70;;;;;;;;;;4906685;29;20036;-69
2022/08/13 06:11:33;;;;;;;11.43;10.48;;;;;;;;;;4909897;29;20387;-69
2022/08/13 06:14:00;;;;;;;11.60;10.65;;;;;;;;;;4908948;29;20119;-68
2022/08/13 06:16:28;;;;;;;11.65;10.70;;;;;;;;;;4907771;29;20040;-69
2022/08/13 06:18:57;;;;;;;10.82;10.00;;;;;;;;;;4911542;29;20052;-70
2022/08/13 06:21:24;;;;;;;;;;;;;;;;;;4913378;29;20063;-70
2022/08/13 06:23:51;;;;;;;11.20;10.43;;;;;;;;;;4910314;29;20382;-70
2022/08/13 06:26:20;;;;;;;11.40;10.50;;;;;;;;;;4910638;29;20062;-68
2022/08/13 06:28:53;;;;;;;11.30;10.57;;;;;;;;;;4913422;29;20063;-69
2022/08/13 06:31:25;;;;;;;10.93;10.10;;;;;;;;;;4913479;29;21310;-70
2022/08/13 06:33:55;;;;;;;11.60;10.60;;;;;;;;;;4912000;29;20032;-70
2022/08/13 06:36:24;;;;;;;11.50;10.43;;;;;;;;;;4911930;29;20528;-70
2022/08/13 06:38:50;;;;;;;10.20;9.40;;;;;;;;;;4912164;29;20538;-68
2022/08/13 06:41:18;;;;;;;11.10;10.20;;;;;;;;;;4913127;29;20488;-68
2022/08/13 06:43:52;;;;;;;10.73;9.97;;;;;;;;;;4910976;29;20079;-69
2022/08/13 06:46:28;;;;;;;11.27;10.30;;;;;;;;;;4911352;29;20655;-68
2022/08/13 06:49:03;;;;;;;10.85;10.02;;;;;;;;;;4912147;29;20044;-69
2022/08/13 06:51:29;;;;;;;10.40;9.70;;;;;;;;;;4908285;29;20040;-68
2022/08/13 06:53:55;;;;;;;10.27;9.45;;;;;;;;;;4913131;29;20144;-68
2022/08/13 06:56:23;;;;;;;10.43;9.68;;;;;;;;;;4912068;29;20058;-70
2022/08/13 06:58:51;;;;;;;10.50;9.80;;;;;;;;;;4911504;29;20036;-70
2022/08/13 07:01:19;;;;;;;11.00;10.10;;;;;;;;;;4910939;29;20499;-69
2022/08/13 07:03:46;;;;;;;11.10;9.98;;;;;;;;;;4912810;29;20040;-70
2022/08/13 07:06:17;;;;;;;10.27;9.68;;;;;;;;;;4911202;29;20046;-70
2022/08/13 07:08:43;;;;;;;11.02;10.10;;;;;;;;;;4910880;29;20092;-70
2022/08/13 07:11:21;;;;;;;9.85;9.15;;;;;;;;;;4911725;29;20428;-69
2022/08/13 07:13:49;;;;;;;11.07;10.10;;;;;;;;;;4912535;29;20036;-69
2022/08/13 07:16:16;;;;;;;10.35;9.48;;;;;;;;;;4910657;29;20048;-69
2022/08/13 07:18:43;;;;;;;10.35;9.68;;;;;;;;;;4926359;29;20479;-70
2022/08/13 07:21:11;;;;;;;10.45;9.80;;;;;;;;;;4912358;29;20071;-69
2022/08/13 07:23:38;;;;;;;10.50;9.40;;;;;;;;;;4912338;29;20032;-70
2022/08/13 07:26:05;;;;;;;9.50;8.90;;;;;;;;;;4907704;29;20126;-70
2022/08/13 07:28:32;;;;;;;9.50;8.80;;;;;;;;;;4912059;29;20040;-70
2022/08/13 07:30:59;;;;;;;9.40;8.75;;;;;;;;;;4911398;29;20603;-71
2022/08/13 07:33:26;;;;;;;9.18;8.48;;;;;;;;;;4909747;29;20179;-70
2022/08/13 07:35:52;;;;;;;9.55;8.85;;;;;;;;;;4909760;29;20064;-69
2022/08/13 07:38:18;;;;;;;9.30;8.75;;;;;;;;;;4912175;29;20373;-68
2022/08/13 07:40:50;;;;;;;9.90;9.20;;;;;;;;;;4911378;29;20158;-70
2022/08/13 07:43:19;;;;;;;9.05;8.45;;;;;;;;;;4908066;29;20040;-70
2022/08/13 07:46:02;;;;;;;9.25;8.65;;;;;;;;;;4911065;29;20345;-70
2022/08/13 07:48:31;;;;;;;9.20;8.60;;;;;;;;;;4911587;29;20494;-69
2022/08/13 07:50:59;;;;;;;9.07;8.57;;;;;;;;;;4912194;29;20103;-69
2022/08/13 07:53:24;;;;;;;9.18;8.48;;;;;;;;;;4908472;29;20044;-69
2022/08/13 07:55:51;;;;;;;9.02;8.35;;;;;;;;;;4910463;29;20043;-70
2022/08/13 07:58:16;;;;;;;9.23;8.43;;;;;;;;;;4914340;23;20096;-87
2022/08/13 08:00:44;;;;;;;8.48;7.88;;;;;;;;;;4889973;29;20037;-89
2022/08/13 08:03:12;;;;;;;8.43;7.90;;;;;;;;;;4900715;29;20037;-89
2022/08/13 08:05:41;;;;;;;;;;;;;;;;;;4901207;29;20496;-88
2022/08/13 08:08:10;;;;;;;9.13;8.52;;;;;;;;;;4899031;29;19911;-89
2022/08/13 08:10:39;;;;;;;;;;;;;;;;;;4905693;23;20021;-69
2022/08/13 08:13:08;;;;;;;8.35;7.85;;;;;;;;;;4928654;29;19934;-68
2022/08/13 08:15:35;;;;;;;8.10;7.60;;;;;;;;;;4924659;29;20034;-69
2022/08/13 08:18:02;;;;;;;7.93;7.50;;;;;;;;;;4927128;29;20031;-69
2022/08/13 08:20:28;;;;;;;8.82;8.10;;;;;;;;;;4922205;29;20102;-69
2022/08/13 08:22:54;;;;;;;9.90;8.73;;;;;;;;;;4924938;29;20744;-69
2022/08/13 08:25:21;;;;;;;8.85;8.25;;;;;;;;;;4924506;29;20098;-68
2022/08/13 08:27:48;;;;;;;9.30;8.70;;;;;;;;;;4928609;29;20091;-68
2022/08/13 08:30:17;;;;;;;8.80;8.27;;;;;;;;;;4926642;28;20831;-69
2022/08/13 08:32:46;;;;;;;8.80;8.20;;;;;;;;;;4924018;29;20095;-68
2022/08/13 08:35:12;;;;;;;8.80;8.20;;;;;;;;;;4926826;29;20071;-69
2022/08/13 08:43:11;;;;;;;8.75;7.95;;;;;;;;;;4928430;29;20047;-68
2022/08/13 08:45:39;;;;;;;8.77;8.02;;;;;;;;;;4920409;29;20074;-68
2022/08/13 08:48:06;;;;;;;8.93;8.32;;;;;;;;;;4924091;29;20487;-68
2022/08/13 08:50:33;;;;;;;9.20;8.50;;;;;;;;;;4927459;29;20745;-68
2022/08/13 08:55:48;;;;;;;8.70;8.02;;;;;;;;;;4925825;29;20044;-69
2022/08/13 08:58:14;;;;;;;9.00;8.38;;;;;;;;;;4924079;29;20040;-69
2022/08/13 09:00:41;;;;;;;8.27;7.65;;;;;;;;;;4926093;29;20036;-69
2022/08/13 09:03:10;;;;;;;8.00;7.53;;;;;;;;;;4926432;29;20119;-69
2022/08/13 09:05:35;;;;;;;8.35;7.43;;;;;;;;;;4923264;29;20067;-68
2022/08/13 09:08:06;;;;;;;8.40;7.90;;;;;;;;;;4926413;29;20066;-68
2022/08/13 09:10:35;;;;;;;8.40;7.90;;;;;;;;;;4922330;29;20059;-68
2022/08/13 09:13:03;;;;;;;8.88;8.10;;;;;;;;;;4927073;29;20134;-68
2022/08/13 09:15:36;;;;;;;8.48;7.97;;;;;;;;;;4922433;29;20042;-68
2022/08/13 09:18:02;;;;;;;8.60;7.90;;;;;;;;;;4923261;29;20035;-68
2022/08/13 09:20:33;;;;;;;8.68;8.07;;;;;;;;;;4924750;29;20043;-68
2022/08/13 09:23:04;;;;;;;8.75;8.15;;;;;;;;;;4926347;29;20513;-68
2022/08/13 09:25:30;;;;;;;8.80;8.25;;;;;;;;;;4924068;29;20032;-68
2022/08/13 09:27:57;;;;;;;9.57;8.82;;;;;;;;;;4926612;29;20095;-69
2022/08/13 09:30:23;;;;;;;8.93;8.13;;;;;;;;;;4925045;29;20054;-69
2022/08/13 09:32:52;;;;;;;8.30;7.68;;;;;;;;;;4925404;29;20070;-69
2022/08/13 09:35:18;;;;;;;9.02;8.18;;;;;;;;;;4926061;29;20115;-68
2022/08/13 09:37:44;;;;;;;8.38;7.75;;;;;;;;;;4925976;29;20158;-68
2022/08/13 09:40:14;;;;;;;7.95;7.43;;;;;;;;;;4924589;29;20051;-68
2022/08/13 09:43:06;;;;;;;9.00;8.10;;;;;;;;;;4924640;29;20043;-69
2022/08/13 09:45:34;;;;;;;8.70;8.10;;;;;;;;;;4917490;29;20525;-68
2022/08/13 09:48:02;;;;;;;8.65;7.80;;;;;;;;;;4924167;29;20112;-67
2022/08/13 09:50:28;;;;;;;8.55;7.95;;;;;;;;;;4926578;29;20131;-68
2022/08/13 09:52:55;;;;;;;8.45;7.85;;;;;;;;;;4921878;29;20119;-68
2022/08/13 09:55:24;;;;;;;9.80;7.97;;;;;;;;;;4926722;29;20044;-68
2022/08/13 09:57:58;;;;;;;8.40;7.90;;;;;;;;;;4928013;29;20031;-67
2022/08/13 10:00:27;;;;;;;8.98;8.32;;;;;;;;;;4929161;29;20028;-67
2022/08/13 10:02:59;;;;;;;8.68;8.18;;;;;;;;;;4929475;29;20051;-68
2022/08/13 10:05:34;;;;;;;9.32;8.70;;;;;;;;;;4928437;29;20039;-68
2022/08/13 10:08:13;;;;;;;8.80;8.15;;;;;;;;;;4924807;29;20028;-68
2022/08/13 10:10:39;;;;;;;7.82;7.43;;;;;;;;;;4928918;29;20168;-68
2022/08/13 10:13:04;;;;;;;8.65;8.05;;;;;;;;;;4929899;29;20043;-67
2022/08/13 10:15:30;;;;;;;8.70;8.10;;;;;;;;;;4929031;29;20110;-68
2022/08/13 10:17:58;;;;;;;8.48;7.80;;;;;;;;;;4927114;29;20040;-68
2022/08/13 10:20:45;;;;;;;8.30;7.70;;;;;;;;;;4927307;29;20071;-68
2022/08/13 10:23:13;;;;;;;7.30;6.80;;;;;;;;;;4926931;29;20091;-68
2022/08/13 10:25:40;;;;;;;7.90;7.20;;;;;;;;;;4926684;29;20028;-68
2022/08/13 10:28:21;;;;;;;7.65;7.15;;;;;;;;;;4926955;29;21834;-68
2022/08/13 10:30:47;;;;;;;7.43;6.82;;;;;;;;;;4927764;29;20035;-68
2022/08/13 10:33:15;;;;;;;6.90;6.30;;;;;;;;;;4928308;29;20059;-68
2022/08/13 10:35:42;;;;;;;;;;;;;;;;;;4929310;29;20494;-68
2022/08/13 10:38:13;;;;;;;7.75;7.20;;;;;;;;;;4929177;29;20400;-68
2022/08/13 10:40:39;;;;;;;8.07;7.57;;;;;;;;;;4926741;29;20032;-68
2022/08/13 10:43:06;;;;;;;7.90;7.20;;;;;;;;;;4926467;29;20186;-68
2022/08/13 10:45:32;;;;;;;7.53;7.07;;;;;;;;;;4929188;29;20073;-68
2022/08/13 10:48:01;;;;;;;8.13;7.00;;;;;;;;;;4926270;29;20058;-68
2022/08/13 10:50:29;;;;;;;;;;;;;;;;;;4928544;29;20040;-68
2022/08/13 10:52:56;;;;;;;8.23;7.63;;;;;;;;;;4927570;29;19923;-67
2022/08/13 10:55:22;;;;;;;8.27;7.57;;;;;;;;;;4928214;29;20162;-67
2022/08/13 10:57:48;;;;;;;8.40;7.85;;;;;;;;;;4929215;29;20058;-67
2022/08/13 11:00:19;;;;;;;7.80;7.40;;;;;;;;;;4926371;29;20130;-67
2022/08/13 11:02:49;;;;;;;8.07;7.47;;;;;;;;;;4928071;29;20043;-67
2022/08/13 11:05:16;;;;;;;8.27;7.57;;;;;;;;;;4925854;29;20087;-67
2022/08/13 11:07:47;;;;;;;8.50;7.90;;;;;;;;;;4927683;29;20036;-67
2022/08/13 11:10:14;;;;;;;8.43;7.93;;;;;;;;;;4928101;29;20601;-67
2022/08/13 11:12:50;;;;;;;8.60;7.90;;;;;;;;;;4928507;29;20416;-68
2022/08/13 11:15:20;;;;;;;7.53;6.97;;;;;;;;;;4930423;29;20035;-68
2022/08/13 11:17:48;;;;;;;8.13;7.63;;;;;;;;;;4924418;29;20047;-67
2022/08/13 11:20:17;;;;;;;8.40;7.80;;;;;;;;;;4923047;29;20052;-68
2022/08/13 11:22:43;;;;;;;8.40;7.78;;;;;;;;;;4919181;29;20804;-67
2022/08/13 11:25:09;;;;;;;7.78;7.18;;;;;;;;;;4920715;29;20487;-68
2022/08/13 11:27:35;;;;;;;8.50;7.90;;;;;;;;;;4925056;29;20050;-67
2022/08/13 11:30:01;;;;;;;8.32;7.72;;;;;;;;;;4921392;29;20032;-68
2022/08/13 11:32:27;;;;;;;8.20;7.60;;;;;;;;;;4919201;29;20059;-68
2022/08/13 11:34:52;;;;;;;12.30;6.97;;;;;;;;;;4925187;29;20126;-68
2022/08/13 11:37:18;;;;;;;8.05;7.47;;;;;;;;;;4917596;29;20032;-68
2022/08/13 11:39:44;;;;;;;8.57;7.97;;;;;;;;;;4922899;29;20660;-67
2022/08/13 11:42:09;;;;;;;8.93;8.32;;;;;;;;;;4919840;29;20400;-67
2022/08/13 11:44:35;;;;;;;8.90;8.20;;;;;;;;;;4925476;29;20237;-68
2022/08/13 11:47:00;;;;;;;8.38;7.78;;;;;;;;;;4924548;29;20052;-67
2022/08/13 11:49:26;;;;;;;8.20;7.70;;;;;;;;;;4924784;29;20036;-67
2022/08/13 11:51:51;;;;;;;8.77;8.20;;;;;;;;;;4921495;29;20042;-68
2022/08/13 11:54:18;;;;;;;9.63;9.02;;;;;;;;;;4922632;29;20041;-67
2022/08/13 11:56:44;;;;;;;9.52;8.52;;;;;;;;;;4921016;29;20104;-68
2022/08/13 11:59:09;;;;;;;9.43;8.60;;;;;;;;;;4922797;29;20083;-67
2022/08/13 12:01:36;;;;;;;9.50;8.80;;;;;;;;;;4921149;29;20039;-67
2022/08/13 12:04:02;;;;;;;8.82;8.23;;;;;;;;;;4921287;29;20040;-68
2022/08/13 12:06:28;;;;;;;9.25;8.75;;;;;;;;;;4926099;29;20054;-68
2022/08/13 12:08:53;;;;;;;9.52;8.82;;;;;;;;;;4922106;29;20040;-69
2022/08/13 12:11:19;;;;;;;8.63;8.13;;;;;;;;;;4920166;29;20047;-69
2022/08/13 12:13:44;;;;;;;9.20;8.60;;;;;;;;;;4919748;29;20106;-68
2022/08/13 12:16:10;;;;;;;8.43;7.82;;;;;;;;;;4927057;29;20043;-67
2022/08/13 12:18:35;;;;;;;9.00;8.15;;;;;;;;;;4918140;29;20035;-67
2022/08/13 12:21:01;;;;;;;9.15;8.27;;;;;;;;;;4923947;29;20652;-67
2022/08/13 12:23:26;;;;;;;9.00;8.20;;;;;;;;;;4920868;29;20040;-68
2022/08/13 12:25:52;;;;;;;8.60;8.00;;;;;;;;;;4921242;29;20044;-67
2022/08/13 12:28:22;;;;;;;8.52;7.95;;;;;;;;;;4919114;29;20039;-67
2022/08/13 12:30:51;;;;;;;9.30;8.35;;;;;;;;;;4926004;29;20040;-67
2022/08/13 12:33:17;;;;;;;9.05;8.32;;;;;;;;;;4928895;29;20046;-67
2022/08/13 12:35:44;;;;;;;9.15;8.57;;;;;;;;;;4925687;29;20027;-68
2022/08/13 12:38:12;;;;;;;8.65;8.05;;;;;;;;;;4925950;29;20447;-68
2022/08/13 12:40:40;;;;;;;9.52;8.77;;;;;;;;;;4927426;29;20503;-68
2022/08/13 12:43:06;;;;;;;8.63;8.03;;;;;;;;;;4926396;29;20063;-68
2022/08/13 12:45:33;;;;;;;8.90;8.40;;;;;;;;;;4923913;29;20787;-68
2022/08/13 12:48:07;;;;;;;9.45;8.60;;;;;;;;;;4924541;29;20036;-68
2022/08/13 12:50:34;;;;;;;9.00;8.40;;;;;;;;;;4919006;29;20043;-68
2022/08/13 12:53:00;;;;;;;9.50;8.77;;;;;;;;;;4926722;29;20039;-67
2022/08/13 12:55:26;;;;;;;9.43;8.57;;;;;;;;;;4922541;29;20134;-70
2022/08/13 12:57:52;;;;;;;8.88;8.38;;;;;;;;;;4921085;29;20034;-68
2022/08/13 13:00:18;;;;;;;9.02;8.52;;;;;;;;;;4920817;29;20069;-68
2022/08/13 13:02:44;;;;;;;8.90;8.30;;;;;;;;;;4926229;29;20040;-68
2022/08/13 13:05:10;;;;;;;9.15;8.55;;;;;;;;;;4924170;29;20115;-67
2022/08/13 13:07:36;;;;;;;9.00;8.50;;;;;;;;;;4924800;29;20467;-67
2022/08/13 13:10:02;;;;;;;9.50;8.23;;;;;;;;;;4924275;29;20217;-67
2022/08/13 13:12:28;;;;;;;8.82;8.13;;;;;;;;;;4922611;29;20035;-67
2022/08/13 13:14:54;;;;;;;8.65;8.13;;;;;;;;;;4922939;29;20619;-67
2022/08/13 13:17:20;;;;;;;9.05;8.40;;;;;;;;;;4925466;29;20071;-67
2022/08/13 13:19:45;;;;;;;8.25;7.75;;;;;;;;;;4923021;29;20035;-67
2022/08/13 13:22:11;;;;;;;9.13;8.45;;;;;;;;;;4925516;29;20032;-68
2022/08/13 13:24:37;;;;;;;9.05;8.45;;;;;;;;;;4925123;29;20098;-68
2022/08/13 13:27:04;;;;;;;8.68;8.07;;;;;;;;;;4926209;29;20160;-68
2022/08/13 13:29:36;;;;;;;8.98;8.35;;;;;;;;;;4922007;29;20127;-68
2022/08/13 13:32:07;;;;;;;8.82;8.23;;;;;;;;;;4922513;29;20054;-68
2022/08/13 13:34:33;;;;;;;8.40;7.82;;;;;;;;;;4923482;29;20071;-68
2022/08/13 13:36:59;;;;;;;8.75;7.95;;;;;;;;;;4922171;29;20071;-68
2022/08/13 13:39:24;;;;;;;9.00;8.27;;;;;;;;;;4926458;29;20039;-68
2022/08/13 13:41:50;;;;;;;8.68;7.93;;;;;;;;;;4910511;29;20032;-68
2022/08/13 13:44:16;;;;;;;8.45;7.85;;;;;;;;;;4922861;29;20044;-68
2022/08/13 13:46:41;;;;;;;8.70;8.10;;;;;;;;;;4923743;29;20039;-68
2022/08/13 13:49:07;;;;;;;8.40;7.90;;;;;;;;;;4940172;29;20126;-68
2022/08/13 13:51:33;;;;;;;8.75;8.15;;;;;;;;;;4924690;29;20047;-68
2022/08/13 13:53:58;;;;;;;9.38;8.43;;;;;;;;;;4922234;29;20036;-68
2022/08/13 13:56:24;;;;;;;9.32;8.55;;;;;;;;;;4926627;29;20040;-67
2022/08/13 13:58:53;;;;;;;9.50;8.57;;;;;;;;;;4922842;29;20106;-68
2022/08/13 14:01:20;;;;;;;9.07;8.52;;;;;;;;;;4921469;29;20040;-68
2022/08/13 14:03:45;;;;;;;9.43;8.60;;;;;;;;;;4922116;29;20036;-68
2022/08/13 14:06:18;;;;;;;9.27;8.68;;;;;;;;;;4925177;29;20039;-68
2022/08/13 14:08:44;;;;;;;8.65;8.15;;;;;;;;;;4921120;29;21351;-69
2022/08/13 14:11:09;;;;;;;9.35;8.65;;;;;;;;;;4923428;29;20043;-68
2022/08/13 14:13:35;;;;;;;8.75;8.25;;;;;;;;;;4924346;29;20126;-68
2022/08/13 14:16:01;;;;;;;9.35;8.73;;;;;;;;;;4922558;29;20064;-67
2022/08/13 14:18:27;;;;;;;9.45;8.57;;;;;;;;;;4917143;29;20036;-67
2022/08/13 14:20:56;;;;;;;8.98;8.48;;;;;;;;;;4923444;29;20491;-68
2022/08/13 14:23:24;;;;;;;9.07;8.57;;;;;;;;;;4922964;29;20229;-68
2022/08/13 14:25:51;;;;;;;9.27;8.57;;;;;;;;;;4919619;29;20040;-69
2022/08/13 14:28:18;;;;;;;9.18;8.57;;;;;;;;;;4923010;29;20055;-69
2022/08/13 14:30:46;;;;;;;9.70;9.00;;;;;;;;;;4921611;29;20047;-69
2022/08/13 14:33:12;;;;;;;9.33;8.50;;;;;;;;;;4919300;29;20095;-69
2022/08/13 14:35:39;;;;;;;9.65;8.90;;;;;;;;;;4925628;29;20303;-68
2022/08/13 14:38:06;;;;;;;9.10;8.50;;;;;;;;;;4922146;29;20043;-69
2022/08/13 14:40:32;;;;;;;9.05;8.50;;;;;;;;;;4921914;29;20095;-68
2022/08/13 14:43:02;;;;;;;9.13;8.57;;;;;;;;;;4919384;29;20043;-68
2022/08/13 14:45:46;;;;;;;9.30;8.70;;;;;;;;;;4923641;29;20432;-68
2022/08/13 14:48:16;;;;;;;9.50;8.90;;;;;;;;;;4924790;29;20043;-68
2022/08/13 14:50:51;;;;;;;9.70;8.90;;;;;;;;;;4924239;29;20091;-68
2022/08/13 14:53:16;;;;;;;9.63;9.02;;;;;;;;;;4925461;29;20180;-68
2022/08/13 14:55:44;;;;;;;9.85;9.25;;;;;;;;;;4924339;29;20063;-67
2022/08/13 14:58:14;;;;;;;9.82;9.10;;;;;;;;;;4927952;29;20036;-68
2022/08/13 15:00:44;;;;;;;9.40;8.82;;;;;;;;;;4927124;29;20039;-69
2022/08/13 15:03:12;;;;;;;9.82;9.10;;;;;;;;;;4925145;29;20122;-67
2022/08/13 15:05:40;;;;;;;9.60;8.77;;;;;;;;;;4923591;29;20043;-67
2022/08/13 15:08:07;;;;;;;9.70;9.10;;;;;;;;;;4922429;29;20040;-68